Time;durP1;ratioP1;P1;durP2;ratioP2;P2;SDS_P1;SDS_P2;PMS_P1;PMS_P2;Temp;Humidity;BMP_temperature;BMP_pressure;BME280_temperature;BME280_humidity;BME280_pressure;Samples;Min_cycle;Max_cycle;Signal;HPM_P1;HPM_P2
2023/07/11 00:01:26;;;;;;;9.13;7.20;;;;;;;;;;5033813;28;20528;-73
2023/07/11 00:03:53;;;;;;;9.27;7.30;;;;;;;;;;5033944;28;20549;-73
2023/07/11 00:06:21;;;;;;;12.20;8.00;;;;;;;;;;5033868;28;20446;-75
2023/07/11 00:08:50;;;;;;;13.43;7.43;;;;;;;;;;5034170;28;20450;-74
2023/07/11 00:11:18;;;;;;;16.10;8.50;;;;;;;;;;5144980;23;20998;-74
2023/07/11 00:13:53;;;;;;;10.90;7.30;;;;;;;;;;5033688;28;20453;-75
2023/07/11 00:16:20;;;;;;;7.70;6.60;;;;;;;;;;5033932;28;20461;-75
2023/07/11 00:18:48;;;;;;;11.13;6.90;;;;;;;;;;5034032;28;20476;-74
2023/07/11 00:21:15;;;;;;;8.10;7.10;;;;;;;;;;5033636;28;20478;-75
2023/07/11 00:23:43;;;;;;;7.60;6.50;;;;;;;;;;5033848;28;20544;-74
2023/07/11 00:26:12;;;;;;;8.93;8.03;;;;;;;;;;5033563;28;20446;-73
2023/07/11 00:28:39;;;;;;;11.10;8.37;;;;;;;;;;5033706;28;20994;-75
2023/07/11 00:31:06;;;;;;;12.00;7.00;;;;;;;;;;5033362;28;20470;-74
2023/07/11 00:33:34;;;;;;;9.10;7.37;;;;;;;;;;5033425;28;20489;-74
2023/07/11 00:36:01;;;;;;;9.33;8.40;;;;;;;;;;5033549;28;20460;-74
2023/07/11 00:38:28;;;;;;;8.90;8.00;;;;;;;;;;5033823;28;20446;-74
2023/07/11 00:40:55;;;;;;;14.30;8.63;;;;;;;;;;5033650;28;20490;-75
2023/07/11 00:43:24;;;;;;;16.10;8.67;;;;;;;;;;5033579;28;20975;-74
2023/07/11 00:46:01;;;;;;;8.43;7.53;;;;;;;;;;5033297;28;20454;-74
2023/07/11 00:48:30;;;;;;;10.67;8.07;;;;;;;;;;5033469;28;20477;-74
2023/07/11 00:50:57;;;;;;;8.93;7.90;;;;;;;;;;5033607;28;20564;-74
2023/07/11 00:53:25;;;;;;;18.83;8.00;;;;;;;;;;5033518;28;20449;-74
2023/07/11 00:55:52;;;;;;;8.20;7.43;;;;;;;;;;5033579;28;20460;-74
2023/07/11 00:58:20;;;;;;;9.23;7.60;;;;;;;;;;5033254;28;20450;-74
2023/07/11 01:00:49;;;;;;;11.53;10.43;;;;;;;;;;5033223;28;20481;-74
2023/07/11 01:03:16;;;;;;;8.80;7.50;;;;;;;;;;5034262;28;20801;-74
2023/07/11 01:05:43;;;;;;;10.67;8.10;;;;;;;;;;5031755;28;20472;-74
2023/07/11 01:08:11;;;;;;;10.83;8.70;;;;;;;;;;5032981;28;20489;-75
2023/07/11 01:10:38;;;;;;;9.40;6.90;;;;;;;;;;5033281;28;21101;-75
2023/07/11 01:13:35;;;;;;;14.70;8.70;;;;;;;;;;5033305;28;20430;-74
2023/07/11 01:16:04;;;;;;;9.30;7.67;;;;;;;;;;5033023;28;20446;-74
2023/07/11 01:18:31;;;;;;;20.00;8.93;;;;;;;;;;5033286;28;20790;-74
2023/07/11 01:20:58;;;;;;;8.63;7.73;;;;;;;;;;5033346;28;20477;-75
2023/07/11 01:23:26;;;;;;;12.20;7.93;;;;;;;;;;5033062;28;20446;-75
2023/07/11 01:26:00;;;;;;;7.87;7.20;;;;;;;;;;5033218;28;20453;-75
2023/07/11 01:28:27;;;;;;;10.50;8.40;;;;;;;;;;5032790;28;20469;-75
2023/07/11 01:30:54;;;;;;;10.03;8.93;;;;;;;;;;5033146;28;20496;-75
2023/07/11 01:33:24;;;;;;;10.50;8.40;;;;;;;;;;5032952;28;20457;-74
2023/07/11 01:35:52;;;;;;;15.73;9.40;;;;;;;;;;5032852;28;20507;-74
2023/07/11 01:38:19;;;;;;;8.90;8.00;;;;;;;;;;5033066;28;20449;-75
2023/07/11 01:40:48;;;;;;;10.30;8.60;;;;;;;;;;5032857;28;20508;-74
2023/07/11 01:43:15;;;;;;;10.03;8.20;;;;;;;;;;5033072;28;20823;-74
2023/07/11 01:45:43;;;;;;;9.17;7.93;;;;;;;;;;5032870;28;20813;-74
2023/07/11 01:48:10;;;;;;;8.63;7.50;;;;;;;;;;5032851;28;20489;-75
2023/07/11 01:50:37;;;;;;;9.00;8.10;;;;;;;;;;5032948;28;20845;-75
2023/07/11 01:53:04;;;;;;;12.60;9.43;;;;;;;;;;5032992;28;20451;-74
2023/07/11 01:55:31;;;;;;;9.47;8.53;;;;;;;;;;5032679;28;20462;-74
2023/07/11 01:58:00;;;;;;;9.90;8.90;;;;;;;;;;5032805;28;20446;-75
2023/07/11 02:00:28;;;;;;;9.93;8.93;;;;;;;;;;5032531;28;20477;-74
2023/07/11 02:02:55;;;;;;;8.30;7.60;;;;;;;;;;5032633;28;20525;-75
2023/07/11 02:05:23;;;;;;;8.60;7.63;;;;;;;;;;5032571;28;20512;-74
2023/07/11 02:07:50;;;;;;;10.30;8.20;;;;;;;;;;5032303;28;20933;-74
2023/07/11 02:10:17;;;;;;;11.83;9.70;;;;;;;;;;5034399;28;20485;-75
2023/07/11 02:12:48;;;;;;;8.87;7.97;;;;;;;;;;5035901;28;20472;-75
2023/07/11 02:15:17;;;;;;;11.50;8.33;;;;;;;;;;5036144;28;20446;-74
2023/07/11 02:17:44;;;;;;;9.13;8.10;;;;;;;;;;5036297;28;20452;-75
2023/07/11 02:20:12;;;;;;;11.73;8.30;;;;;;;;;;5036103;28;21033;-75
2023/07/11 02:22:39;;;;;;;11.97;8.10;;;;;;;;;;5035943;28;20961;-74
2023/07/11 02:25:07;;;;;;;13.07;8.80;;;;;;;;;;5036156;28;20972;-74
2023/07/11 02:27:34;;;;;;;9.47;8.00;;;;;;;;;;5036181;28;20481;-75
2023/07/11 02:30:01;;;;;;;11.30;8.90;;;;;;;;;;5036054;28;20449;-74
2023/07/11 02:32:30;;;;;;;10.53;8.57;;;;;;;;;;5035705;28;20453;-74
2023/07/11 02:34:57;;;;;;;11.83;10.63;;;;;;;;;;5036092;28;20450;-74
2023/07/11 02:37:24;;;;;;;14.73;10.93;;;;;;;;;;5035718;28;20462;-75
2023/07/11 02:39:51;;;;;;;13.13;8.77;;;;;;;;;;5035724;28;20468;-75
2023/07/11 02:42:18;;;;;;;10.77;9.67;;;;;;;;;;5035826;28;20484;-75
2023/07/11 02:47:50;;;;;;;9.47;8.63;;;;;;;;;;5035950;28;20507;-75
2023/07/11 02:50:17;;;;;;;10.47;8.97;;;;;;;;;;5035453;28;20523;-75
2023/07/11 02:52:44;;;;;;;11.23;9.10;;;;;;;;;;5035565;28;20446;-74
2023/07/11 02:55:11;;;;;;;13.17;8.13;;;;;;;;;;5035646;28;20460;-74
2023/07/11 02:57:40;;;;;;;14.23;11.87;;;;;;;;;;5035816;28;20845;-75
2023/07/11 03:00:08;;;;;;;10.77;9.60;;;;;;;;;;5035457;28;20462;-74
2023/07/11 03:02:35;;;;;;;11.77;9.30;;;;;;;;;;5035418;28;20953;-74
2023/07/11 03:05:04;;;;;;;9.70;8.70;;;;;;;;;;5035455;28;20821;-75
2023/07/11 03:07:31;;;;;;;10.67;9.20;;;;;;;;;;5035221;28;20454;-75
2023/07/11 03:09:58;;;;;;;10.10;9.20;;;;;;;;;;5035043;28;20896;-75
2023/07/11 03:12:29;;;;;;;10.50;9.27;;;;;;;;;;5034992;28;20469;-75
2023/07/11 03:14:56;;;;;;;11.90;9.50;;;;;;;;;;5035059;28;20446;-74
2023/07/11 03:17:23;;;;;;;18.20;12.60;;;;;;;;;;5035194;28;20449;-75
2023/07/11 03:19:50;;;;;;;12.40;10.60;;;;;;;;;;5035273;28;20454;-74
2023/07/11 03:22:19;;;;;;;12.27;10.73;;;;;;;;;;5035182;28;20461;-74
2023/07/11 03:24:46;;;;;;;12.53;10.17;;;;;;;;;;5034800;28;20541;-74
2023/07/11 03:27:13;;;;;;;10.93;9.80;;;;;;;;;;5034064;28;20450;-75
2023/07/11 03:29:40;;;;;;;12.73;11.43;;;;;;;;;;5034103;28;20489;-74
2023/07/11 03:32:10;;;;;;;13.70;10.83;;;;;;;;;;5034218;28;20473;-74
2023/07/11 03:34:37;;;;;;;11.17;9.97;;;;;;;;;;5033928;28;20457;-74
2023/07/11 03:37:04;;;;;;;11.60;9.73;;;;;;;;;;5034210;28;20820;-75
2023/07/11 03:39:33;;;;;;;12.37;9.77;;;;;;;;;;5033343;28;20457;-74
2023/07/11 03:42:00;;;;;;;10.53;9.43;;;;;;;;;;5034070;28;21065;-75
2023/07/11 03:44:27;;;;;;;17.33;12.50;;;;;;;;;;5034191;28;20461;-75
2023/07/11 03:46:54;;;;;;;13.20;9.97;;;;;;;;;;5034062;28;20488;-75
2023/07/11 03:49:21;;;;;;;10.60;9.60;;;;;;;;;;5034060;28;20520;-74
2023/07/11 03:51:48;;;;;;;12.90;10.40;;;;;;;;;;5033945;28;20474;-75
2023/07/11 03:54:15;;;;;;;12.63;10.07;;;;;;;;;;5033531;28;20499;-75
2023/07/11 03:56:44;;;;;;;13.07;10.13;;;;;;;;;;5033635;28;20465;-74
2023/07/11 03:59:11;;;;;;;11.37;9.67;;;;;;;;;;5033849;28;20450;-75
2023/07/11 04:01:38;;;;;;;15.53;13.90;;;;;;;;;;5033650;28;20469;-74
2023/07/11 04:04:05;;;;;;;21.60;12.30;;;;;;;;;;5033853;28;20449;-74
2023/07/11 04:06:32;;;;;;;13.93;12.43;;;;;;;;;;5033512;28;20458;-75
2023/07/11 04:08:59;;;;;;;14.40;12.47;;;;;;;;;;5032865;28;20485;-75
2023/07/11 04:11:26;;;;;;;11.67;10.47;;;;;;;;;;5033454;28;20485;-75
2023/07/11 04:13:55;;;;;;;13.23;12.03;;;;;;;;;;5033217;28;20462;-75
2023/07/11 04:16:22;;;;;;;11.30;10.10;;;;;;;;;;5033594;28;20449;-74
2023/07/11 04:18:49;;;;;;;16.50;11.10;;;;;;;;;;5033311;28;20442;-74
2023/07/11 04:24:16;;;;;;;12.37;11.17;;;;;;;;;;5012118;28;21019;-74
2023/07/11 04:26:43;;;;;;;9.40;8.50;;;;;;;;;;5013888;28;20931;-75
2023/07/11 04:29:11;;;;;;;13.27;9.80;;;;;;;;;;5013267;28;20491;-75
2023/07/11 04:31:39;;;;;;;10.60;9.60;;;;;;;;;;5013400;28;20506;-75
2023/07/11 04:34:06;;;;;;;15.80;8.80;;;;;;;;;;5013570;28;20994;-75
2023/07/11 04:36:33;;;;;;;10.20;9.20;;;;;;;;;;5013162;28;20455;-74
2023/07/11 04:39:00;;;;;;;9.10;8.10;;;;;;;;;;5013025;28;20455;-74
2023/07/11 04:41:28;;;;;;;8.67;7.87;;;;;;;;;;5013174;28;20477;-75
2023/07/11 04:43:55;;;;;;;9.60;7.40;;;;;;;;;;5012982;28;20461;-74
2023/07/11 04:46:25;;;;;;;11.23;8.57;;;;;;;;;;5027288;28;20564;-75
2023/07/11 04:48:52;;;;;;;14.00;9.10;;;;;;;;;;5032505;28;20540;-73
2023/07/11 04:51:19;;;;;;;12.80;9.63;;;;;;;;;;5032491;28;20481;-73
2023/07/11 04:53:47;;;;;;;9.80;8.73;;;;;;;;;;5016938;28;20511;-74
2023/07/11 04:56:14;;;;;;;9.30;8.50;;;;;;;;;;5012995;28;20465;-74
2023/07/11 04:58:40;;;;;;;10.27;8.77;;;;;;;;;;5012797;28;20451;-75
2023/07/11 05:01:08;;;;;;;8.77;7.97;;;;;;;;;;5012474;28;20475;-75
2023/07/11 05:03:37;;;;;;;9.60;8.47;;;;;;;;;;5012608;28;20465;-75
2023/07/11 05:06:05;;;;;;;11.57;9.40;;;;;;;;;;5012469;28;20492;-75
2023/07/11 05:08:32;;;;;;;10.83;8.77;;;;;;;;;;5012676;28;20854;-75
2023/07/11 05:11:01;;;;;;;13.33;8.07;;;;;;;;;;5012670;28;20811;-75
2023/07/11 05:13:29;;;;;;;8.30;7.43;;;;;;;;;;5012332;28;20462;-75
2023/07/11 05:15:59;;;;;;;9.10;8.10;;;;;;;;;;5012537;28;20450;-75
2023/07/11 05:18:26;;;;;;;10.10;9.00;;;;;;;;;;5012684;28;20485;-75
2023/07/11 05:20:55;;;;;;;9.60;7.63;;;;;;;;;;5012638;28;20485;-75
2023/07/11 05:23:23;;;;;;;15.07;8.30;;;;;;;;;;5012362;28;20462;-74
2023/07/11 05:25:50;;;;;;;10.03;7.63;;;;;;;;;;5012675;28;20825;-72
2023/07/11 05:28:17;;;;;;;8.80;7.70;;;;;;;;;;5012301;28;20490;-74
2023/07/11 05:30:44;;;;;;;9.17;6.80;;;;;;;;;;5012247;28;20482;-75
2023/07/11 05:33:11;;;;;;;9.53;6.60;;;;;;;;;;5012462;28;20455;-75
2023/07/11 05:35:46;;;;;;;7.70;6.90;;;;;;;;;;5012155;28;20482;-75
2023/07/11 05:38:15;;;;;;;7.93;7.13;;;;;;;;;;5012356;28;20454;-75
2023/07/11 05:40:42;;;;;;;8.43;7.63;;;;;;;;;;5011860;28;20483;-75
2023/07/11 05:43:10;;;;;;;9.20;7.23;;;;;;;;;;5012213;28;20451;-75
2023/07/11 05:45:37;;;;;;;7.60;7.00;;;;;;;;;;5015002;28;20912;-75
2023/07/11 05:48:04;;;;;;;9.33;7.03;;;;;;;;;;5015961;28;20481;-75
2023/07/11 05:50:31;;;;;;;8.07;7.07;;;;;;;;;;5015678;28;20844;-75
2023/07/11 05:52:58;;;;;;;10.53;6.83;;;;;;;;;;5015927;28;20802;-75
2023/07/11 05:55:27;;;;;;;9.63;8.63;;;;;;;;;;5015680;28;20533;-73
2023/07/11 05:57:54;;;;;;;8.83;6.23;;;;;;;;;;5016059;28;20462;-75
2023/07/11 06:00:21;;;;;;;8.23;7.40;;;;;;;;;;5015579;28;20489;-74
2023/07/11 06:02:48;;;;;;;11.77;8.40;;;;;;;;;;5016146;28;20457;-75
2023/07/11 06:05:16;;;;;;;7.80;7.03;;;;;;;;;;5015693;28;20478;-74
2023/07/11 06:07:43;;;;;;;6.50;5.90;;;;;;;;;;5015798;28;20875;-73
2023/07/11 06:10:10;;;;;;;9.40;6.70;;;;;;;;;;5015716;28;20496;-74
2023/07/11 06:12:41;;;;;;;8.00;7.20;;;;;;;;;;5015107;28;20973;-74
2023/07/11 06:15:09;;;;;;;6.50;5.77;;;;;;;;;;5015573;28;20465;-74
2023/07/11 06:17:36;;;;;;;9.43;6.63;;;;;;;;;;5015402;28;20458;-74
2023/07/11 06:20:04;;;;;;;15.93;6.70;;;;;;;;;;5015761;28;20830;-74
2023/07/11 06:22:36;;;;;;;6.67;5.93;;;;;;;;;;5015302;28;20455;-74
2023/07/11 06:25:03;;;;;;;6.50;5.90;;;;;;;;;;5015519;28;20462;-73
2023/07/11 06:27:30;;;;;;;6.60;5.90;;;;;;;;;;5001171;28;20462;-73
2023/07/11 06:29:59;;;;;;;7.80;6.80;;;;;;;;;;5009213;28;20494;-73
2023/07/11 06:32:26;;;;;;;8.07;5.93;;;;;;;;;;5013806;28;20469;-73
2023/07/11 06:34:53;;;;;;;7.17;6.10;;;;;;;;;;5014233;28;20462;-73
2023/07/11 06:37:20;;;;;;;7.07;6.47;;;;;;;;;;5014144;28;20450;-73
2023/07/11 06:39:47;;;;;;;7.03;6.43;;;;;;;;;;5014106;28;20490;-74
2023/07/11 06:42:15;;;;;;;7.27;6.20;;;;;;;;;;5014328;28;20809;-75
2023/07/11 06:44:42;;;;;;;6.73;6.13;;;;;;;;;;5014010;28;20461;-74
2023/07/11 06:47:10;;;;;;;6.77;6.17;;;;;;;;;;5014252;28;20446;-75
2023/07/11 06:49:38;;;;;;;8.80;6.20;;;;;;;;;;5014160;28;20490;-74
2023/07/11 06:52:05;;;;;;;8.67;5.37;;;;;;;;;;5013887;28;21017;-76
2023/07/11 06:54:32;;;;;;;9.33;5.87;;;;;;;;;;5013795;28;20231;-75
2023/07/11 06:57:00;;;;;;;6.83;6.10;;;;;;;;;;5013746;28;20664;-75
2023/07/11 06:59:27;;;;;;;10.60;5.83;;;;;;;;;;5013700;28;20294;-75
2023/07/11 07:01:54;;;;;;;6.07;5.50;;;;;;;;;;5013600;28;20235;-73
2023/07/11 07:04:23;;;;;;;7.13;5.40;;;;;;;;;;5013164;28;20211;-74
2023/07/11 07:06:50;;;;;;;6.70;6.10;;;;;;;;;;5013529;28;20212;-75
2023/07/11 07:09:18;;;;;;;5.93;5.13;;;;;;;;;;5013559;28;20573;-75
2023/07/11 07:11:45;;;;;;;6.60;6.10;;;;;;;;;;5013760;28;20321;-74
2023/07/11 07:14:12;;;;;;;7.07;5.38;;;;;;;;;;5030714;28;20217;-74
2023/07/11 07:16:40;;;;;;;8.65;6.32;;;;;;;;;;5033746;28;20218;-74
2023/07/11 07:19:08;;;;;;;6.50;5.97;;;;;;;;;;5033865;28;20203;-74
2023/07/11 07:21:36;;;;;;;11.50;5.80;;;;;;;;;;5033458;28;20719;-75
2023/07/11 07:24:03;;;;;;;6.50;5.53;;;;;;;;;;5033725;28;20225;-73
2023/07/11 07:26:30;;;;;;;7.23;5.93;;;;;;;;;;5033543;28;20221;-73
2023/07/11 07:28:58;;;;;;;8.18;5.68;;;;;;;;;;5033648;28;20602;-74
2023/07/11 07:31:25;;;;;;;8.57;5.75;;;;;;;;;;5033810;28;20257;-75
2023/07/11 07:33:52;;;;;;;6.20;5.20;;;;;;;;;;5013998;28;20215;-73
2023/07/11 07:36:19;;;;;;;7.60;5.90;;;;;;;;;;5013742;28;20207;-73
2023/07/11 07:38:48;;;;;;;6.47;5.97;;;;;;;;;;5013585;28;20222;-75
2023/07/11 07:41:15;;;;;;;7.47;4.78;;;;;;;;;;5013644;28;20309;-74
2023/07/11 07:43:43;;;;;;;6.70;5.72;;;;;;;;;;5013707;28;20593;-75
2023/07/11 07:46:13;;;;;;;7.65;5.25;;;;;;;;;;5013510;28;20218;-73
2023/07/11 07:48:40;;;;;;;6.70;5.78;;;;;;;;;;5013673;28;20211;-73
2023/07/11 07:51:08;;;;;;;5.88;5.22;;;;;;;;;;5013256;28;20696;-73
2023/07/11 07:53:35;;;;;;;6.32;5.10;;;;;;;;;;5013566;28;20599;-73
2023/07/11 07:56:04;;;;;;;7.40;5.43;;;;;;;;;;5013412;28;20226;-73
2023/07/11 07:58:32;;;;;;;5.60;5.10;;;;;;;;;;5011338;28;22179;-73
2023/07/11 08:00:59;;;;;;;5.95;4.82;;;;;;;;;;5011487;28;20708;-73
2023/07/11 08:03:27;;;;;;;9.55;5.68;;;;;;;;;;5012056;28;20215;-74
2023/07/11 08:05:55;;;;;;;6.32;5.32;;;;;;;;;;5011748;28;20211;-74
2023/07/11 08:08:22;;;;;;;7.85;5.47;;;;;;;;;;5011189;28;20647;-73
2023/07/11 08:10:50;;;;;;;5.38;4.88;;;;;;;;;;5012545;28;20261;-73
2023/07/11 08:13:20;;;;;;;6.15;4.93;;;;;;;;;;5013103;28;20218;-75
2023/07/11 08:15:47;;;;;;;5.25;4.85;;;;;;;;;;5012469;28;20219;-73
2023/07/11 08:18:15;;;;;;;5.82;5.15;;;;;;;;;;5011871;28;20684;-75
2023/07/11 08:20:42;;;;;;;6.35;4.93;;;;;;;;;;5012220;28;20318;-73
2023/07/11 08:23:09;;;;;;;7.25;5.60;;;;;;;;;;5012138;28;20223;-73
2023/07/11 08:25:36;;;;;;;7.60;4.70;;;;;;;;;;5012512;28;20626;-75
2023/07/11 08:28:04;;;;;;;5.68;5.00;;;;;;;;;;5012475;28;20207;-75
2023/07/11 08:30:35;;;;;;;4.80;4.40;;;;;;;;;;5012191;28;20234;-75
2023/07/11 08:33:02;;;;;;;5.38;4.70;;;;;;;;;;5012595;28;20215;-75
2023/07/11 08:35:29;;;;;;;5.05;4.40;;;;;;;;;;5012461;28;20215;-75
2023/07/11 08:37:57;;;;;;;5.00;4.60;;;;;;;;;;5012507;28;20242;-75
2023/07/11 08:40:27;;;;;;;6.25;5.75;;;;;;;;;;5012357;28;20234;-75
2023/07/11 08:42:54;;;;;;;8.13;5.07;;;;;;;;;;5012201;28;20621;-75
2023/07/11 08:45:23;;;;;;;6.55;4.57;;;;;;;;;;5012235;28;20255;-75
2023/07/11 08:47:55;;;;;;;5.05;4.38;;;;;;;;;;5012151;28;20211;-74
2023/07/11 08:50:25;;;;;;;7.40;5.45;;;;;;;;;;5012165;28;20231;-75
2023/07/11 08:52:55;;;;;;;6.22;5.10;;;;;;;;;;5012680;28;20214;-75
2023/07/11 08:55:24;;;;;;;7.68;5.40;;;;;;;;;;5012185;28;20211;-75
2023/07/11 08:57:56;;;;;;;10.70;5.82;;;;;;;;;;5012208;28;20270;-75
2023/07/11 09:00:24;;;;;;;7.25;5.85;;;;;;;;;;5011777;28;20235;-75
2023/07/11 09:02:55;;;;;;;6.83;6.23;;;;;;;;;;5012224;28;20219;-75
2023/07/11 09:05:33;;;;;;;5.90;5.50;;;;;;;;;;5012270;28;20257;-75
2023/07/11 09:08:00;;;;;;;6.93;5.93;;;;;;;;;;5012351;28;20550;-75
2023/07/11 09:10:33;;;;;;;6.23;5.80;;;;;;;;;;5011963;28;20297;-75
2023/07/11 09:13:05;;;;;;;7.80;7.00;;;;;;;;;;5011623;28;20211;-75
2023/07/11 09:15:36;;;;;;;7.13;6.43;;;;;;;;;;5011839;28;20210;-74
2023/07/11 09:18:11;;;;;;;8.50;6.43;;;;;;;;;;5011749;28;20575;-75
2023/07/11 09:20:42;;;;;;;5.47;4.97;;;;;;;;;;5016160;28;20466;-74
2023/07/11 09:23:15;;;;;;;6.57;5.20;;;;;;;;;;5022031;28;20305;-75
2023/07/11 09:25:44;;;;;;;7.53;5.90;;;;;;;;;;5035248;28;20214;-75
2023/07/11 09:28:13;;;;;;;5.87;5.37;;;;;;;;;;5035230;28;20217;-75
2023/07/11 09:30:43;;;;;;;7.77;5.73;;;;;;;;;;5034573;28;20238;-74
2023/07/11 09:33:16;;;;;;;6.03;5.47;;;;;;;;;;5035100;28;20624;-74
2023/07/11 09:38:49;;;;;;;7.00;6.30;;;;;;;;;;5013946;28;20455;-74
2023/07/11 09:41:19;;;;;;;7.50;6.40;;;;;;;;;;5015499;28;20983;-75
2023/07/11 09:43:47;;;;;;;8.40;6.03;;;;;;;;;;5015772;28;20211;-74
2023/07/11 09:46:14;;;;;;;6.83;5.77;;;;;;;;;;5015864;28;20219;-74
2023/07/11 09:48:44;;;;;;;6.07;5.20;;;;;;;;;;5015752;28;20211;-74
2023/07/11 09:51:19;;;;;;;6.20;5.30;;;;;;;;;;5015902;28;20502;-74
2023/07/11 09:53:47;;;;;;;6.23;5.63;;;;;;;;;;5015930;28;20512;-74
2023/07/11 09:56:17;;;;;;;6.60;5.87;;;;;;;;;;5015951;28;20218;-74
2023/07/11 09:58:47;;;;;;;6.00;5.40;;;;;;;;;;5015941;28;20560;-74
2023/07/11 10:01:17;;;;;;;6.00;5.50;;;;;;;;;;5016248;28;20591;-74
2023/07/11 10:03:48;;;;;;;7.23;6.53;;;;;;;;;;5015623;28;20652;-74
2023/07/11 10:06:27;;;;;;;7.37;6.13;;;;;;;;;;5015640;28;20453;-74
2023/07/11 10:08:54;;;;;;;6.60;6.00;;;;;;;;;;5015673;28;20349;-74
2023/07/11 10:11:22;;;;;;;7.20;5.80;;;;;;;;;;5015431;28;20490;-75
2023/07/11 10:13:56;;;;;;;8.33;6.00;;;;;;;;;;5015504;28;20466;-74
2023/07/11 10:16:23;;;;;;;6.40;5.00;;;;;;;;;;5015608;28;20207;-74
2023/07/11 10:18:53;;;;;;;6.13;5.50;;;;;;;;;;5015183;28;20222;-74
2023/07/11 10:21:22;;;;;;;8.00;5.47;;;;;;;;;;5015741;28;20235;-74
2023/07/11 10:23:50;;;;;;;7.43;6.20;;;;;;;;;;5015263;28;20222;-74
2023/07/11 10:26:21;;;;;;;6.80;5.53;;;;;;;;;;5015344;28;20214;-74
2023/07/11 10:28:55;;;;;;;9.90;6.10;;;;;;;;;;5015332;28;20583;-75
2023/07/11 10:31:24;;;;;;;8.83;6.23;;;;;;;;;;5014265;28;20239;-74
2023/07/11 10:33:55;;;;;;;7.47;6.43;;;;;;;;;;5015410;28;20572;-74
2023/07/11 10:36:23;;;;;;;9.60;7.00;;;;;;;;;;5015096;28;20222;-74
2023/07/11 10:38:54;;;;;;;14.50;13.00;;;;;;;;;;5015090;28;20545;-74
2023/07/11 10:41:24;;;;;;;8.07;7.00;;;;;;;;;;5012715;28;20227;-73
2023/07/11 10:43:52;;;;;;;7.83;6.90;;;;;;;;;;5013959;28;20211;-74
2023/07/11 10:46:26;;;;;;;7.07;6.33;;;;;;;;;;5014309;28;20657;-73
2023/07/11 10:48:56;;;;;;;6.50;5.90;;;;;;;;;;5013737;28;20706;-74
2023/07/11 10:51:24;;;;;;;7.63;6.93;;;;;;;;;;5013831;28;20239;-73
2023/07/11 10:53:59;;;;;;;7.53;6.10;;;;;;;;;;5014056;28;20564;-73
2023/07/11 10:56:28;;;;;;;6.77;6.10;;;;;;;;;;5013492;28;20707;-74
2023/07/11 10:58:56;;;;;;;9.03;6.47;;;;;;;;;;5013627;28;20221;-74
2023/07/11 11:01:29;;;;;;;10.20;6.63;;;;;;;;;;5013551;28;20477;-73
2023/07/11 11:04:03;;;;;;;7.90;7.17;;;;;;;;;;5013407;28;20568;-74
2023/07/11 11:06:35;;;;;;;7.23;6.60;;;;;;;;;;5013783;28;20211;-73
2023/07/11 11:09:07;;;;;;;8.50;6.70;;;;;;;;;;5013552;28;20438;-73
2023/07/11 11:11:39;;;;;;;9.93;6.53;;;;;;;;;;5013177;28;20241;-74
2023/07/11 11:14:10;;;;;;;10.20;6.83;;;;;;;;;;5013229;28;20450;-74
2023/07/11 11:16:42;;;;;;;7.40;6.67;;;;;;;;;;5013313;28;20485;-74
2023/07/11 11:19:16;;;;;;;10.27;5.90;;;;;;;;;;5013346;28;20207;-74
2023/07/11 11:21:47;;;;;;;6.97;6.30;;;;;;;;;;5013295;28;20222;-74
2023/07/11 11:24:25;;;;;;;7.23;6.53;;;;;;;;;;5013037;28;20219;-74
2023/07/11 11:26:57;;;;;;;9.33;5.80;;;;;;;;;;5014077;28;20222;-75
2023/07/11 11:29:27;;;;;;;7.83;6.50;;;;;;;;;;5013613;28;20258;-74
2023/07/11 11:31:59;;;;;;;8.40;6.40;;;;;;;;;;5014517;28;20247;-73
2023/07/11 11:34:36;;;;;;;6.97;6.30;;;;;;;;;;5013965;28;20210;-73
2023/07/11 11:37:06;;;;;;;6.83;6.20;;;;;;;;;;5013996;28;20461;-74
2023/07/11 11:39:38;;;;;;;6.80;5.63;;;;;;;;;;5013928;28;20583;-73
2023/07/11 11:42:06;;;;;;;11.80;6.17;;;;;;;;;;5012660;28;20795;-74
2023/07/11 11:44:37;;;;;;;7.37;5.57;;;;;;;;;;5013875;28;20219;-73
2023/07/11 11:47:05;;;;;;;7.00;6.07;;;;;;;;;;5013854;28;20591;-73
2023/07/11 11:49:34;;;;;;;5.87;5.33;;;;;;;;;;5014038;28;20575;-74
2023/07/11 11:52:01;;;;;;;7.67;6.30;;;;;;;;;;5013792;28;20680;-74
2023/07/11 11:54:35;;;;;;;8.57;5.93;;;;;;;;;;5013760;28;20225;-74
2023/07/11 11:57:03;;;;;;;6.30;5.70;;;;;;;;;;5013632;28;20211;-74
2023/07/11 11:59:31;;;;;;;9.70;5.93;;;;;;;;;;5013766;28;20385;-74
2023/07/11 12:02:02;;;;;;;6.90;5.30;;;;;;;;;;5013651;28;20582;-74
2023/07/11 12:04:38;;;;;;;6.63;5.90;;;;;;;;;;5013551;28;20207;-74
2023/07/11 12:07:07;;;;;;;10.27;6.23;;;;;;;;;;5013408;28;20306;-74
2023/07/11 12:09:40;;;;;;;8.40;6.30;;;;;;;;;;5013313;28;20215;-74
2023/07/11 12:12:09;;;;;;;7.07;5.30;;;;;;;;;;5013178;28;20695;-73
2023/07/11 12:14:37;;;;;;;6.70;6.00;;;;;;;;;;5013366;28;20218;-73
2023/07/11 12:17:05;;;;;;;6.50;4.93;;;;;;;;;;5013410;28;20222;-74
2023/07/11 12:19:33;;;;;;;9.83;5.37;;;;;;;;;;5013312;28;20203;-74
2023/07/11 12:22:05;;;;;;;9.13;5.30;;;;;;;;;;5013111;28;20704;-74
2023/07/11 12:24:42;;;;;;;6.27;5.60;;;;;;;;;;5013094;28;20458;-73
2023/07/11 12:27:10;;;;;;;6.53;5.70;;;;;;;;;;5013304;28;20869;-73
2023/07/11 12:29:40;;;;;;;6.77;6.07;;;;;;;;;;5013229;28;20526;-74
2023/07/11 12:32:25;;;;;;;8.77;5.60;;;;;;;;;;5012990;28;20520;-74
2023/07/11 12:34:56;;;;;;;7.13;5.73;;;;;;;;;;5013494;28;20449;-74
2023/07/11 12:37:26;;;;;;;6.37;5.77;;;;;;;;;;5013553;28;20447;-73
2023/07/11 12:39:57;;;;;;;5.90;5.30;;;;;;;;;;5013104;28;20808;-73
2023/07/11 12:42:31;;;;;;;8.50;5.10;;;;;;;;;;5013117;28;20851;-74
2023/07/11 12:44:58;;;;;;;9.27;5.37;;;;;;;;;;5013139;28;20445;-73
2023/07/11 12:47:25;;;;;;;9.43;8.40;;;;;;;;;;5011615;28;20450;-73
2023/07/11 12:49:53;;;;;;;6.93;5.70;;;;;;;;;;5001050;28;20447;-74
2023/07/11 12:52:24;;;;;;;6.80;4.93;;;;;;;;;;4995754;28;20997;-73
2023/07/11 12:54:52;;;;;;;6.67;5.67;;;;;;;;;;4992832;28;20889;-74
2023/07/11 12:57:20;;;;;;;5.37;4.87;;;;;;;;;;4993102;28;20462;-73
2023/07/11 12:59:50;;;;;;;7.57;5.50;;;;;;;;;;4993259;28;20820;-73
2023/07/11 13:02:20;;;;;;;7.60;5.37;;;;;;;;;;4992940;28;20471;-74
2023/07/11 13:04:48;;;;;;;6.87;5.27;;;;;;;;;;4992943;28;20459;-73
2023/07/11 13:07:16;;;;;;;7.90;4.80;;;;;;;;;;4992887;28;20834;-73
2023/07/11 13:09:45;;;;;;;7.97;4.70;;;;;;;;;;4992853;28;20460;-76
2023/07/11 13:12:20;;;;;;;5.60;4.47;;;;;;;;;;4992626;28;20519;-73
2023/07/11 13:14:48;;;;;;;9.00;4.20;;;;;;;;;;4992957;28;21030;-73
2023/07/11 13:17:16;;;;;;;6.87;4.97;;;;;;;;;;4992970;28;20455;-73
2023/07/11 13:19:44;;;;;;;8.33;4.80;;;;;;;;;;4993207;28;20460;-74
2023/07/11 13:22:14;;;;;;;5.10;4.67;;;;;;;;;;4998848;28;20509;-73
2023/07/11 13:24:41;;;;;;;7.47;4.60;;;;;;;;;;5012600;28;20473;-73
2023/07/11 13:27:15;;;;;;;4.80;4.40;;;;;;;;;;5012613;28;20939;-73
2023/07/11 13:29:43;;;;;;;5.43;4.60;;;;;;;;;;5012343;28;20458;-73
2023/07/11 13:32:14;;;;;;;7.07;5.30;;;;;;;;;;5012249;28;20505;-73
2023/07/11 13:34:41;;;;;;;5.37;4.57;;;;;;;;;;5012298;28;20457;-73
2023/07/11 13:37:09;;;;;;;5.10;4.60;;;;;;;;;;5012126;28;20462;-73
2023/07/11 13:39:47;;;;;;;9.20;4.93;;;;;;;;;;5012472;28;21013;-73
2023/07/11 13:42:15;;;;;;;7.33;4.93;;;;;;;;;;5012579;28;20482;-73
2023/07/11 13:44:47;;;;;;;6.37;4.63;;;;;;;;;;5012560;28;20807;-73
2023/07/11 13:47:16;;;;;;;6.33;4.10;;;;;;;;;;5012465;28;20458;-74
2023/07/11 13:49:45;;;;;;;9.43;4.73;;;;;;;;;;5012255;28;20469;-74
2023/07/11 13:52:22;;;;;;;9.23;4.67;;;;;;;;;;5012602;28;20501;-73
2023/07/11 13:54:54;;;;;;;6.00;5.40;;;;;;;;;;5012207;28;20805;-73
2023/07/11 13:57:21;;;;;;;9.50;4.80;;;;;;;;;;5012149;28;20565;-74
2023/07/11 13:59:50;;;;;;;7.23;6.20;;;;;;;;;;5012178;28;20466;-73
2023/07/11 14:02:18;;;;;;;7.53;4.53;;;;;;;;;;5012142;28;20459;-74
2023/07/11 14:04:46;;;;;;;6.53;5.67;;;;;;;;;;5012376;28;20477;-74
2023/07/11 14:07:14;;;;;;;6.30;4.57;;;;;;;;;;5015439;28;20558;-74
2023/07/11 14:09:42;;;;;;;6.00;5.40;;;;;;;;;;5015473;28;20462;-74
2023/07/11 14:12:13;;;;;;;6.20;4.70;;;;;;;;;;5015304;28;20490;-74
2023/07/11 14:14:40;;;;;;;11.30;7.90;;;;;;;;;;5015881;28;20493;-74
2023/07/11 14:17:14;;;;;;;6.70;5.03;;;;;;;;;;5015378;28;20465;-73
2023/07/11 14:19:41;;;;;;;5.60;4.97;;;;;;;;;;5015493;28;20439;-74
2023/07/11 14:22:12;;;;;;;8.00;5.10;;;;;;;;;;5015306;28;20979;-74
2023/07/11 14:24:42;;;;;;;7.93;5.77;;;;;;;;;;5015410;28;20438;-74
2023/07/11 14:27:10;;;;;;;5.50;5.07;;;;;;;;;;5015437;28;20457;-73
2023/07/11 14:29:37;;;;;;;9.67;5.10;;;;;;;;;;5015318;28;20538;-74
2023/07/11 14:32:05;;;;;;;6.30;4.80;;;;;;;;;;5015207;28;20501;-74
2023/07/11 14:34:34;;;;;;;5.70;5.20;;;;;;;;;;5015196;28;20943;-74
2023/07/11 14:37:01;;;;;;;5.47;4.47;;;;;;;;;;5014942;28;20463;-74
2023/07/11 14:39:28;;;;;;;8.67;5.50;;;;;;;;;;5015463;28;20466;-74
2023/07/11 14:41:56;;;;;;;5.93;5.00;;;;;;;;;;5015258;28;20975;-74
2023/07/11 14:44:24;;;;;;;10.30;5.70;;;;;;;;;;5014959;28;20465;-74
2023/07/11 14:46:51;;;;;;;4.87;4.47;;;;;;;;;;5015184;28;20515;-74
2023/07/11 14:49:19;;;;;;;8.20;5.77;;;;;;;;;;5015090;28;20463;-74
2023/07/11 14:51:48;;;;;;;6.30;4.83;;;;;;;;;;5014700;28;20590;-74
2023/07/11 14:54:17;;;;;;;9.33;7.33;;;;;;;;;;5015044;28;20463;-74
2023/07/11 14:56:45;;;;;;;5.83;5.07;;;;;;;;;;5014691;28;20455;-74